Time;durP1;ratioP1;P1;durP2;ratioP2;P2;SDS_P1;SDS_P2;PMS_P1;PMS_P2;Temp;Humidity;BMP_temperature;BMP_pressure;BME280_temperature;BME280_humidity;BME280_pressure;Samples;Min_cycle;Max_cycle;Signal;HPM_P1;HPM_P2
2021/12/22 00:01:18;;;;;;;0.65;0.65;;;1.10;99.90;;;;;;4442293;32;20068;-67
2021/12/22 00:03:46;;;;;;;0.82;0.82;;;1.10;99.90;;;;;;4440109;32;20493;-67
2021/12/22 00:06:14;;;;;;;0.62;0.57;;;1.10;99.90;;;;;;4443651;32;20535;-67
2021/12/22 00:08:39;;;;;;;0.50;0.50;;;1.10;99.90;;;;;;4445189;32;20517;-67
2021/12/22 00:11:05;;;;;;;0.70;0.70;;;1.10;99.90;;;;;;4437847;32;20103;-68
2021/12/22 00:13:31;;;;;;;0.65;0.65;;;1.20;99.90;;;;;;4442175;32;20050;-67
2021/12/22 00:15:56;;;;;;;0.50;0.50;;;1.20;99.90;;;;;;4444262;32;20076;-67
2021/12/22 00:18:21;;;;;;;0.50;0.50;;;1.20;99.90;;;;;;4442259;32;20401;-68
2021/12/22 00:20:47;;;;;;;0.70;0.70;;;1.00;99.90;;;;;;4442341;32;20080;-67
2021/12/22 00:23:13;;;;;;;0.30;0.30;;;1.00;99.90;;;;;;4442820;32;20372;-68
2021/12/22 00:25:38;;;;;;;1.23;0.93;;;1.00;99.90;;;;;;4441281;32;20081;-67
2021/12/22 00:28:04;;;;;;;0.62;0.62;;;1.00;99.90;;;;;;4444761;32;20064;-67
2021/12/22 00:30:30;;;;;;;0.50;0.50;;;0.90;99.90;;;;;;4441765;32;20073;-67
2021/12/22 00:33:02;;;;;;;0.43;0.43;;;0.80;99.90;;;;;;4441917;32;20081;-67
2021/12/22 00:35:37;;;;;;;3.87;0.70;;;0.90;99.90;;;;;;4442082;32;20146;-67
2021/12/22 00:38:03;;;;;;;0.43;0.43;;;1.00;99.90;;;;;;4442131;32;20102;-68
2021/12/22 00:40:28;;;;;;;0.52;0.52;;;1.10;99.90;;;;;;4440920;32;20124;-67
2021/12/22 00:42:54;;;;;;;1.05;0.95;;;1.20;99.90;;;;;;4435883;32;20065;-67
2021/12/22 00:45:23;;;;;;;1.48;0.80;;;1.10;99.90;;;;;;4442581;32;20077;-67
2021/12/22 00:47:49;;;;;;;0.75;0.75;;;1.00;99.90;;;;;;4446341;32;20114;-68
2021/12/22 00:50:15;;;;;;;0.40;0.40;;;1.20;99.90;;;;;;4442193;32;20065;-67
2021/12/22 00:52:40;;;;;;;1.15;1.00;;;1.30;99.90;;;;;;4443935;32;20068;-68
2021/12/22 00:55:06;;;;;;;0.73;0.73;;;1.30;99.90;;;;;;4443009;32;20136;-67
2021/12/22 00:57:33;;;;;;;0.60;0.60;;;1.40;99.90;;;;;;4441956;32;20124;-67
2021/12/22 00:59:59;;;;;;;0.60;0.60;;;1.40;99.90;;;;;;4441678;32;20357;-67
2021/12/22 01:02:25;;;;;;;0.30;0.30;;;1.40;99.90;;;;;;4441631;32;20108;-67
2021/12/22 01:04:50;;;;;;;0.50;0.50;;;1.30;99.90;;;;;;4443925;32;20071;-67
2021/12/22 01:07:16;;;;;;;0.50;0.50;;;1.30;99.90;;;;;;4442233;32;20131;-67
2021/12/22 01:09:43;;;;;;;0.50;0.50;;;1.20;99.90;;;;;;4442671;32;20085;-68
2021/12/22 01:12:09;;;;;;;0.50;0.50;;;1.30;99.90;;;;;;4442399;32;20071;-67
2021/12/22 01:14:37;;;;;;;0.57;0.57;;;1.30;99.90;;;;;;4441750;32;20315;-67
2021/12/22 01:17:03;;;;;;;0.40;0.40;;;1.30;99.90;;;;;;4442069;32;20086;-67
2021/12/22 01:19:39;;;;;;;0.60;0.60;;;1.30;99.90;;;;;;4442000;32;20060;-68
2021/12/22 01:22:19;;;;;;;0.40;0.40;;;1.30;99.90;;;;;;4440061;32;20160;-68
2021/12/22 01:24:48;;;;;;;0.50;0.50;;;1.40;99.90;;;;;;4440800;32;20077;-68
2021/12/22 01:27:21;;;;;;;0.52;0.52;;;1.50;99.90;;;;;;4442431;32;20065;-67
2021/12/22 01:29:46;;;;;;;0.40;0.40;;;1.50;99.90;;;;;;4438443;32;20069;-67
2021/12/22 01:32:13;;;;;;;0.75;0.75;;;1.40;99.90;;;;;;4442392;32;20061;-67
2021/12/22 01:34:38;;;;;;;1.27;0.70;;;1.50;99.90;;;;;;4439765;32;20077;-67
2021/12/22 01:37:04;;;;;;;0.55;0.52;;;1.40;99.90;;;;;;4441684;32;20097;-67
2021/12/22 01:39:30;;;;;;;0.40;0.40;;;1.40;99.90;;;;;;4441333;32;20190;-67
2021/12/22 01:41:56;;;;;;;0.47;0.47;;;1.30;99.90;;;;;;4441782;32;20500;-67
2021/12/22 01:44:45;;;;;;;0.50;0.50;;;1.30;99.90;;;;;;4428031;32;20451;-67
2021/12/22 01:49:11;;;;;;;1.40;1.30;;;1.40;99.90;;;;;;4437323;32;20558;-68
2021/12/22 01:49:57;;;;;;;0.60;0.60;;;1.40;99.90;;;;;;4430081;32;20074;-67
2021/12/22 01:52:23;;;;;;;0.50;0.50;;;1.50;99.90;;;;;;4441102;32;20571;-67
2021/12/22 01:55:03;;;;;;;0.80;0.80;;;1.30;99.90;;;;;;4442156;32;20069;-67
2021/12/22 01:57:30;;;;;;;3.10;1.48;;;1.30;99.90;;;;;;4445775;32;20065;-67
2021/12/22 01:59:55;;;;;;;0.50;0.50;;;1.40;99.90;;;;;;4444614;32;20065;-67
2021/12/22 02:02:21;;;;;;;0.98;0.68;;;1.50;99.90;;;;;;4444076;32;20429;-67
2021/12/22 02:04:47;;;;;;;0.50;0.50;;;1.60;99.90;;;;;;4446297;32;20093;-68
2021/12/22 02:07:13;;;;;;;0.70;0.70;;;1.50;99.90;;;;;;4444952;32;20123;-67
2021/12/22 02:10:46;;;;;;;0.40;0.40;;;1.40;99.90;;;;;;4443221;32;20576;-68
2021/12/22 02:12:27;;;;;;;19.50;1.35;;;1.50;99.90;;;;;;4433750;32;20124;-67
2021/12/22 02:14:53;;;;;;;0.95;0.95;;;1.60;99.90;;;;;;4444256;32;20521;-67
2021/12/22 02:17:19;;;;;;;0.40;0.40;;;1.60;99.90;;;;;;4442156;32;20190;-68
2021/12/22 02:19:46;;;;;;;0.40;0.40;;;1.40;99.90;;;;;;4442670;32;20069;-68
2021/12/22 02:22:15;;;;;;;1.02;1.02;;;1.40;99.90;;;;;;4443846;32;20468;-67
2021/12/22 02:24:51;;;;;;;0.47;0.47;;;1.50;99.90;;;;;;4443218;32;20065;-67
2021/12/22 02:27:54;;;;;;;0.50;0.50;;;1.50;99.90;;;;;;4443895;32;20505;-67
2021/12/22 02:30:07;;;;;;;0.52;0.52;;;1.40;99.90;;;;;;4434769;32;20065;-67
2021/12/22 02:33:01;;;;;;;0.60;0.60;;;1.40;99.90;;;;;;4444829;32;20077;-67
2021/12/22 02:35:25;;;;;;;0.30;0.30;;;1.40;99.90;;;;;;4419954;32;20080;-67
2021/12/22 02:37:51;;;;;;;0.50;0.50;;;1.40;99.90;;;;;;4440888;32;20134;-67
2021/12/22 02:40:24;;;;;;;2.20;0.82;;;1.50;99.90;;;;;;4442536;32;20064;-67
2021/12/22 02:42:53;;;;;;;0.40;0.40;;;1.50;99.90;;;;;;4443974;32;20069;-68
2021/12/22 02:45:20;;;;;;;0.40;0.40;;;1.50;99.90;;;;;;4448156;32;20072;-67
2021/12/22 02:47:46;;;;;;;1.37;1.20;;;1.50;99.90;;;;;;4441952;32;20081;-67
2021/12/22 02:50:14;;;;;;;0.80;0.80;;;1.50;99.90;;;;;;4445881;32;20081;-67
2021/12/22 02:53:14;;;;;;;0.88;0.47;;;1.50;99.90;;;;;;4452242;32;20076;-67
2021/12/22 02:55:31;;;;;;;0.43;0.43;;;1.50;99.90;;;;;;4429995;32;20212;-67
2021/12/22 02:58:00;;;;;;;0.50;0.50;;;1.40;99.90;;;;;;4445237;32;20143;-67
2021/12/22 03:05:24;;;;;;;1.00;0.70;;;1.50;99.90;;;;;;4444537;32;20137;-67
2021/12/22 03:07:50;;;;;;;0.60;0.60;;;1.40;99.90;;;;;;4448192;32;20069;-67
2021/12/22 03:10:18;;;;;;;0.40;0.40;;;1.30;99.90;;;;;;4437411;32;20486;-68
2021/12/22 03:12:46;;;;;;;0.60;0.60;;;1.40;99.90;;;;;;4444061;32;20077;-68
2021/12/22 03:15:12;;;;;;;1.35;0.95;;;1.40;99.90;;;;;;4444504;32;20155;-67
2021/12/22 03:17:39;;;;;;;0.37;0.37;;;1.30;99.90;;;;;;4444722;32;20294;-67
2021/12/22 03:20:07;;;;;;;0.50;0.50;;;1.40;99.90;;;;;;4446251;32;20120;-68
2021/12/22 03:22:32;;;;;;;0.40;0.40;;;1.30;99.90;;;;;;4446893;32;20056;-67
2021/12/22 03:24:58;;;;;;;0.47;0.47;;;1.30;99.90;;;;;;4454806;32;20130;-67
2021/12/22 03:27:24;;;;;;;0.30;0.30;;;1.30;99.90;;;;;;4445492;32;20187;-67
2021/12/22 03:29:51;;;;;;;0.43;0.43;;;1.20;99.90;;;;;;4445460;32;20068;-67
2021/12/22 03:32:18;;;;;;;0.30;0.30;;;1.20;99.90;;;;;;4452728;32;20107;-68
2021/12/22 03:34:44;;;;;;;0.45;0.45;;;1.20;99.90;;;;;;4458955;32;20430;-68
2021/12/22 03:37:10;;;;;;;0.30;0.30;;;1.20;99.90;;;;;;4445636;32;20151;-68
2021/12/22 03:39:37;;;;;;;0.60;0.60;;;1.20;99.90;;;;;;4444247;32;20135;-67
2021/12/22 03:42:06;;;;;;;1.05;0.70;;;1.30;99.90;;;;;;4444040;32;20118;-67
2021/12/22 03:44:32;;;;;;;0.40;0.40;;;1.30;99.90;;;;;;4444503;32;20134;-67
2021/12/22 03:46:59;;;;;;;0.32;0.32;;;1.30;99.90;;;;;;4443870;32;20516;-67
2021/12/22 03:49:25;;;;;;;0.68;0.68;;;1.30;99.90;;;;;;4444191;32;20069;-67
2021/12/22 03:51:51;;;;;;;0.90;0.90;;;1.30;99.90;;;;;;4445488;32;20064;-67
2021/12/22 03:54:16;;;;;;;0.40;0.40;;;1.40;99.90;;;;;;4446116;32;20076;-68
2021/12/22 03:56:42;;;;;;;1.65;0.80;;;1.20;99.90;;;;;;4452952;32;20517;-67
2021/12/22 03:59:08;;;;;;;0.32;0.32;;;1.20;99.90;;;;;;4451998;32;20143;-67
2021/12/22 04:01:35;;;;;;;0.50;0.50;;;1.20;99.90;;;;;;4450460;32;20402;-67
2021/12/22 04:04:06;;;;;;;0.70;0.68;;;1.30;99.90;;;;;;4448124;32;20080;-67
2021/12/22 04:06:31;;;;;;;0.60;0.60;;;1.30;99.90;;;;;;4454477;32;20528;-68
2021/12/22 04:08:57;;;;;;;0.98;0.98;;;1.40;99.90;;;;;;4439059;32;20189;-67
2021/12/22 04:11:22;;;;;;;0.40;0.40;;;1.40;99.90;;;;;;4441843;32;20081;-67
2021/12/22 04:13:49;;;;;;;0.40;0.40;;;1.40;99.90;;;;;;4440803;32;20447;-67
2021/12/22 04:16:14;;;;;;;0.60;0.60;;;1.30;99.90;;;;;;4444011;32;20081;-67
2021/12/22 04:18:40;;;;;;;0.43;0.43;;;1.20;99.90;;;;;;4444461;32;20131;-67
2021/12/22 04:21:05;;;;;;;0.50;0.50;;;1.20;99.90;;;;;;4447995;32;20500;-68
2021/12/22 04:23:31;;;;;;;0.60;0.60;;;1.20;99.90;;;;;;4448488;32;20073;-68
2021/12/22 04:25:56;;;;;;;0.50;0.50;;;1.20;99.90;;;;;;4443932;32;20073;-68
2021/12/22 04:28:22;;;;;;;0.40;0.40;;;1.20;99.90;;;;;;4444176;32;20105;-68
2021/12/22 04:30:48;;;;;;;0.40;0.40;;;1.20;99.90;;;;;;4446609;32;20383;-67
2021/12/22 04:33:15;;;;;;;0.45;0.45;;;1.20;99.90;;;;;;4436614;32;87606;-67
2021/12/22 04:35:41;;;;;;;0.60;0.60;;;1.20;99.90;;;;;;4455351;32;20127;-67
2021/12/22 04:38:07;;;;;;;1.17;0.75;;;1.20;99.90;;;;;;4454540;32;20065;-67
2021/12/22 04:40:32;;;;;;;0.70;0.70;;;1.20;99.90;;;;;;4440488;32;20583;-68
2021/12/22 04:42:58;;;;;;;0.45;0.45;;;1.10;99.90;;;;;;4443692;32;20052;-68
2021/12/22 04:45:23;;;;;;;2.00;0.88;;;1.10;99.90;;;;;;4444847;32;20065;-67
2021/12/22 04:47:51;;;;;;;0.52;0.52;;;1.10;99.90;;;;;;4446844;32;20124;-68
2021/12/22 04:50:19;;;;;;;0.60;0.60;;;1.10;99.90;;;;;;4447355;32;20072;-67
2021/12/22 04:52:56;;;;;;;0.40;0.40;;;1.20;99.90;;;;;;4448609;32;20071;-68
2021/12/22 04:55:23;;;;;;;0.50;0.50;;;1.20;99.90;;;;;;4444516;32;20078;-67
2021/12/22 04:57:48;;;;;;;0.30;0.30;;;1.20;99.90;;;;;;4443495;32;20081;-68
2021/12/22 05:00:15;;;;;;;0.40;0.40;;;1.20;99.90;;;;;;4441735;32;20072;-67
2021/12/22 05:02:41;;;;;;;0.62;0.62;;;1.20;99.90;;;;;;4443234;32;20076;-66
2021/12/22 05:05:07;;;;;;;0.40;0.40;;;1.30;99.90;;;;;;4445611;32;20085;-67
2021/12/22 05:07:33;;;;;;;1.05;1.05;;;1.30;99.90;;;;;;4454060;32;20066;-67
2021/12/22 05:09:58;;;;;;;0.47;0.47;;;1.20;99.90;;;;;;4447378;32;20072;-67
2021/12/22 05:12:24;;;;;;;1.45;0.93;;;1.20;99.90;;;;;;4444235;32;20128;-67
2021/12/22 05:14:50;;;;;;;0.40;0.40;;;1.10;99.90;;;;;;4449412;32;20080;-68
2021/12/22 05:17:21;;;;;;;0.40;0.40;;;1.00;99.90;;;;;;4446928;32;20082;-67
2021/12/22 05:19:47;;;;;;;0.70;0.70;;;1.00;99.90;;;;;;4445710;32;20532;-67
2021/12/22 05:22:14;;;;;;;1.23;1.02;;;1.00;99.90;;;;;;4436272;32;20120;-68
2021/12/22 05:24:40;;;;;;;0.60;0.60;;;1.00;99.90;;;;;;4441671;32;20525;-67
2021/12/22 05:27:11;;;;;;;1.65;0.88;;;1.10;99.90;;;;;;4444490;32;20089;-67
2021/12/22 05:29:37;;;;;;;0.40;0.40;;;1.20;99.90;;;;;;4446261;32;20089;-67
2021/12/22 05:32:04;;;;;;;0.50;0.50;;;1.10;99.90;;;;;;4445631;32;20069;-67
2021/12/22 05:34:30;;;;;;;0.40;0.40;;;1.10;99.90;;;;;;4456963;32;20323;-68
2021/12/22 05:36:55;;;;;;;0.40;0.40;;;1.10;99.90;;;;;;4448497;32;20498;-67
2021/12/22 05:39:21;;;;;;;0.60;0.60;;;1.00;99.90;;;;;;4445288;32;20597;-67
2021/12/22 05:41:46;;;;;;;0.80;0.80;;;1.00;99.90;;;;;;4445166;32;20528;-66
2021/12/22 05:44:12;;;;;;;0.40;0.40;;;1.00;99.90;;;;;;4455217;32;20056;-67
2021/12/22 05:46:37;;;;;;;0.45;0.45;;;1.00;99.90;;;;;;4446619;32;20120;-67
2021/12/22 05:49:03;;;;;;;0.50;0.50;;;0.90;99.90;;;;;;4445607;32;20106;-68
2021/12/22 05:51:32;;;;;;;0.47;0.47;;;0.90;99.90;;;;;;4451559;32;20085;-67
2021/12/22 05:53:58;;;;;;;0.45;0.45;;;1.00;99.90;;;;;;4446727;32;20082;-66
2021/12/22 05:56:25;;;;;;;0.93;0.93;;;0.90;99.90;;;;;;4449748;32;20074;-67
2021/12/22 05:58:51;;;;;;;0.50;0.50;;;0.90;99.90;;;;;;4444685;32;20784;-66
2021/12/22 06:01:17;;;;;;;0.55;0.55;;;0.90;99.90;;;;;;4438287;32;20171;-67
2021/12/22 06:03:42;;;;;;;0.60;0.60;;;0.90;99.90;;;;;;4440499;32;20065;-68
2021/12/22 06:06:10;;;;;;;0.40;0.40;;;0.80;99.90;;;;;;4439740;32;20304;-68
2021/12/22 06:08:36;;;;;;;1.02;0.95;;;0.80;99.90;;;;;;4444048;32;20081;-67
2021/12/22 06:11:01;;;;;;;0.75;0.75;;;0.80;99.90;;;;;;4443473;32;20069;-68
2021/12/22 06:13:27;;;;;;;2.62;1.10;;;0.80;99.90;;;;;;4440089;32;20077;-67
2021/12/22 06:15:52;;;;;;;0.50;0.50;;;0.70;99.90;;;;;;4449913;32;20081;-67
2021/12/22 06:18:18;;;;;;;2.72;1.65;;;0.70;99.90;;;;;;4427746;32;20064;-67
2021/12/22 06:20:43;;;;;;;0.50;0.50;;;0.70;99.90;;;;;;4443275;32;20128;-68
2021/12/22 06:23:09;;;;;;;0.85;0.85;;;0.70;99.90;;;;;;4443084;32;20629;-67
2021/12/22 06:25:35;;;;;;;0.55;0.55;;;0.80;99.90;;;;;;4440583;32;20506;-67
2021/12/22 06:28:00;;;;;;;0.68;0.68;;;0.80;99.90;;;;;;4428226;32;20069;-68
2021/12/22 06:30:26;;;;;;;0.80;0.80;;;0.80;99.90;;;;;;4428863;32;20747;-67
2021/12/22 06:32:52;;;;;;;0.40;0.40;;;0.70;99.90;;;;;;4424589;32;20120;-68
2021/12/22 06:35:21;;;;;;;0.40;0.40;;;0.80;99.90;;;;;;4439966;32;20082;-68
2021/12/22 06:37:48;;;;;;;0.75;0.75;;;0.90;99.90;;;;;;4437362;32;20507;-68
2021/12/22 06:40:14;;;;;;;0.50;0.50;;;0.70;99.90;;;;;;4440487;32;20090;-67
2021/12/22 06:42:41;;;;;;;0.93;0.75;;;0.70;99.90;;;;;;4438568;32;20081;-67
2021/12/22 06:45:09;;;;;;;0.40;0.40;;;0.70;99.90;;;;;;4437371;32;20085;-68
2021/12/22 06:47:34;;;;;;;0.88;0.88;;;0.70;99.90;;;;;;4436737;32;20077;-68
2021/12/22 06:50:00;;;;;;;0.50;0.50;;;0.50;99.90;;;;;;4430920;32;20214;-67
2021/12/22 06:52:26;;;;;;;0.70;0.70;;;0.50;99.90;;;;;;4433576;32;20374;-68
2021/12/22 06:54:51;;;;;;;0.82;0.80;;;0.50;99.90;;;;;;4427968;32;20088;-69
2021/12/22 06:57:21;;;;;;;30.25;1.37;;;0.60;99.90;;;;;;4426899;32;20092;-69
2021/12/22 06:59:47;;;;;;;0.80;0.70;;;0.70;99.90;;;;;;4424567;32;20124;-69
2021/12/22 07:02:13;;;;;;;0.50;0.50;;;0.80;99.90;;;;;;4425681;32;20160;-69
2021/12/22 07:04:38;;;;;;;0.40;0.40;;;0.70;99.90;;;;;;4427046;32;20447;-68
2021/12/22 07:07:04;;;;;;;1.75;1.58;;;0.70;99.90;;;;;;4427113;32;20085;-67
2021/12/22 07:09:29;;;;;;;0.40;0.40;;;0.60;99.90;;;;;;4428084;32;20117;-69
2021/12/22 07:11:55;;;;;;;0.60;0.60;;;0.70;99.90;;;;;;4427728;32;20488;-69
2021/12/22 07:14:21;;;;;;;0.80;0.80;;;0.70;99.90;;;;;;4431533;32;20082;-68
2021/12/22 07:16:47;;;;;;;0.50;0.50;;;0.70;99.90;;;;;;4427867;32;20105;-69
2021/12/22 07:19:13;;;;;;;0.35;0.35;;;0.60;99.90;;;;;;4428249;32;20089;-68
2021/12/22 07:21:39;;;;;;;0.30;0.30;;;0.60;99.90;;;;;;4427536;32;20092;-69
2021/12/22 07:24:05;;;;;;;0.88;0.85;;;0.60;99.90;;;;;;4426059;32;20080;-68
2021/12/22 07:26:31;;;;;;;0.65;0.65;;;0.70;99.90;;;;;;4435851;32;20064;-67
2021/12/22 07:28:57;;;;;;;2.65;1.90;;;0.80;99.90;;;;;;4433797;32;20061;-68
2021/12/22 07:31:23;;;;;;;0.60;0.60;;;0.80;99.90;;;;;;4431140;32;20081;-68
2021/12/22 07:34:14;;;;;;;0.40;0.40;;;0.70;99.90;;;;;;4432566;32;20076;-68
2021/12/22 07:36:54;;;;;;;0.90;0.90;;;0.60;99.90;;;;;;4429196;32;20076;-68
2021/12/22 07:39:20;;;;;;;8.75;1.05;;;0.50;99.90;;;;;;4426577;32;20097;-67
2021/12/22 07:41:46;;;;;;;0.50;0.50;;;0.50;99.90;;;;;;4429608;32;20378;-68
2021/12/22 07:44:11;;;;;;;2.92;1.70;;;0.40;99.90;;;;;;4432471;32;20097;-69
2021/12/22 07:46:37;;;;;;;1.15;1.12;;;0.40;99.90;;;;;;4426127;32;20129;-68
2021/12/22 07:49:03;;;;;;;1.95;1.12;;;0.40;99.90;;;;;;4429940;32;20465;-68
2021/12/22 07:51:28;;;;;;;0.85;0.85;;;0.40;99.90;;;;;;4427999;32;20543;-67
2021/12/22 07:53:54;;;;;;;0.40;0.40;;;0.60;99.90;;;;;;4428951;32;20104;-66
2021/12/22 07:56:19;;;;;;;0.62;0.62;;;0.40;99.90;;;;;;4409183;32;20077;-68
2021/12/22 07:58:45;;;;;;;0.40;0.40;;;0.40;99.90;;;;;;4432081;32;21427;-68
2021/12/22 08:01:10;;;;;;;1.65;1.27;;;0.40;99.90;;;;;;4429594;32;20074;-68
2021/12/22 08:03:36;;;;;;;2.72;1.50;;;0.50;99.90;;;;;;4432008;32;20064;-67
2021/12/22 08:06:02;;;;;;;0.50;0.50;;;0.40;99.90;;;;;;4435272;32;20056;-67
2021/12/22 08:08:27;;;;;;;0.40;0.40;;;0.50;99.90;;;;;;4428680;32;20132;-69
2021/12/22 08:10:52;;;;;;;1.08;1.05;;;0.50;99.90;;;;;;4425453;32;20755;-69
2021/12/22 08:13:18;;;;;;;0.88;0.88;;;0.60;99.90;;;;;;4430347;32;20069;-68
2021/12/22 08:15:44;;;;;;;0.75;0.75;;;0.60;99.90;;;;;;4430356;32;20436;-68
2021/12/22 08:18:10;;;;;;;2.15;1.27;;;0.60;99.90;;;;;;4431043;32;20097;-67
2021/12/22 08:20:36;;;;;;;0.57;0.57;;;0.50;99.90;;;;;;4427887;32;20077;-67
2021/12/22 08:23:01;;;;;;;0.88;0.88;;;0.50;99.90;;;;;;4432082;32;20151;-67
2021/12/22 08:25:27;;;;;;;0.50;0.50;;;0.60;99.90;;;;;;4430889;32;20076;-67
2021/12/22 08:27:53;;;;;;;0.45;0.45;;;0.80;99.90;;;;;;4423246;32;20096;-68
2021/12/22 08:30:18;;;;;;;0.65;0.65;;;0.80;99.90;;;;;;4428108;32;20119;-67
2021/12/22 08:32:44;;;;;;;0.47;0.47;;;0.80;99.90;;;;;;4422685;32;20124;-68
2021/12/22 08:35:13;;;;;;;1.75;1.10;;;0.80;99.90;;;;;;4423048;32;20172;-68
2021/12/22 08:38:55;;;;;;;0.60;0.60;;;0.80;99.90;;;;;;4423907;32;20166;-66
2021/12/22 08:40:25;;;;;;;0.77;0.77;;;1.00;99.90;;;;;;4429942;32;20200;-67
2021/12/22 08:42:52;;;;;;;1.37;1.20;;;1.00;99.90;;;;;;4431127;32;20870;-68
2021/12/22 08:45:17;;;;;;;0.60;0.60;;;1.20;99.90;;;;;;4429863;32;20574;-67
2021/12/22 08:47:45;;;;;;;1.45;1.00;;;1.30;99.90;;;;;;4426450;32;20088;-67
2021/12/22 08:50:12;;;;;;;2.45;1.37;;;1.40;99.90;;;;;;4430159;32;20648;-67
2021/12/22 08:52:39;;;;;;;1.37;1.23;;;1.30;99.90;;;;;;4415965;32;20105;-67
2021/12/22 08:55:05;;;;;;;0.95;0.88;;;1.20;99.90;;;;;;4432758;32;20513;-67
2021/12/22 08:57:31;;;;;;;1.58;1.05;;;1.20;99.90;;;;;;4417630;32;20517;-67
2021/12/22 08:59:57;;;;;;;0.50;0.50;;;1.40;99.90;;;;;;4418795;32;20575;-67
2021/12/22 09:02:22;;;;;;;0.50;0.50;;;1.50;99.90;;;;;;4430686;32;20089;-67
2021/12/22 09:04:48;;;;;;;0.70;0.70;;;1.50;99.90;;;;;;4420852;32;20286;-67
2021/12/22 09:07:14;;;;;;;0.55;0.55;;;1.60;99.90;;;;;;4420001;32;20216;-67
2021/12/22 09:09:39;;;;;;;0.43;0.43;;;1.60;99.90;;;;;;4418322;32;20108;-67
2021/12/22 09:12:06;;;;;;;1.35;0.75;;;1.50;99.90;;;;;;4423346;32;20177;-67
2021/12/22 09:14:32;;;;;;;0.47;0.47;;;1.60;99.90;;;;;;4420297;32;20099;-67
2021/12/22 09:16:58;;;;;;;0.50;0.50;;;1.70;99.90;;;;;;4405541;32;20621;-67
2021/12/22 09:19:24;;;;;;;1.05;0.95;;;1.70;99.90;;;;;;4427837;32;20061;-67
2021/12/22 09:21:51;;;;;;;0.50;0.50;;;1.50;99.90;;;;;;4428949;32;20285;-66
2021/12/22 09:24:17;;;;;;;0.40;0.40;;;1.50;99.90;;;;;;4428469;32;20073;-67
2021/12/22 09:26:43;;;;;;;0.50;0.50;;;1.60;99.90;;;;;;4426749;32;20426;-67
2021/12/22 09:29:09;;;;;;;0.60;0.60;;;1.70;99.90;;;;;;4428210;32;20185;-67
2021/12/22 09:31:35;;;;;;;1.00;0.98;;;1.70;99.90;;;;;;4423991;32;20313;-67
2021/12/22 09:34:00;;;;;;;0.40;0.40;;;1.80;99.90;;;;;;4422799;32;20077;-66
2021/12/22 09:36:27;;;;;;;0.50;0.50;;;1.90;99.90;;;;;;4419511;32;20098;-66
2021/12/22 09:38:52;;;;;;;0.85;0.85;;;1.90;99.90;;;;;;4432217;32;20064;-66
2021/12/22 09:41:18;;;;;;;3.10;1.02;;;2.00;99.90;;;;;;4428026;32;20096;-66
2021/12/22 09:43:44;;;;;;;0.62;0.62;;;2.10;99.90;;;;;;4430221;32;20610;-66
2021/12/22 09:46:13;;;;;;;0.70;0.70;;;2.10;99.90;;;;;;4428962;32;20089;-67
2021/12/22 09:53:38;;;;;;;1.62;1.25;;;1.90;99.90;;;;;;4430126;32;20076;-66
2021/12/22 09:56:05;;;;;;;0.73;0.73;;;2.00;99.90;;;;;;4435309;32;20100;-68
2021/12/22 09:58:31;;;;;;;0.80;0.80;;;2.00;99.90;;;;;;4428953;32;20489;-68
2021/12/22 10:00:57;;;;;;;1.33;1.23;;;2.00;99.90;;;;;;4428798;32;20127;-67
2021/12/22 10:03:24;;;;;;;0.95;0.88;;;1.90;99.90;;;;;;4433740;32;20085;-68
2021/12/22 10:05:50;;;;;;;1.45;1.23;;;2.00;99.90;;;;;;4429219;32;20149;-66
2021/12/22 10:08:18;;;;;;;5.93;1.40;;;1.90;99.90;;;;;;4426938;32;20072;-68
2021/12/22 10:10:48;;;;;;;0.85;0.85;;;1.80;99.90;;;;;;4433262;32;20085;-68
2021/12/22 10:13:19;;;;;;;0.70;0.70;;;1.70;99.90;;;;;;4435707;32;20172;-68
2021/12/22 10:15:45;;;;;;;0.68;0.68;;;2.00;99.90;;;;;;4429962;32;20081;-67
2021/12/22 10:18:15;;;;;;;0.43;0.43;;;1.90;99.90;;;;;;4417078;32;20058;-67
2021/12/22 10:20:43;;;;;;;1.05;0.95;;;2.00;99.90;;;;;;4420349;32;20104;-67
2021/12/22 10:23:28;;;;;;;3.22;2.25;;;2.20;99.90;;;;;;4418593;32;21163;-67
2021/12/22 10:25:56;;;;;;;2.42;0.80;;;2.20;99.90;;;;;;4424835;32;20082;-68
2021/12/22 10:28:23;;;;;;;1.17;1.08;;;2.00;99.90;;;;;;4424038;32;20137;-67
2021/12/22 10:30:55;;;;;;;0.50;0.50;;;2.00;99.90;;;;;;4425617;32;20576;-67
2021/12/22 10:33:23;;;;;;;1.45;1.35;;;2.20;99.90;;;;;;4428136;32;20548;-67
2021/12/22 10:35:52;;;;;;;1.27;1.17;;;2.10;99.90;;;;;;4424259;32;20195;-67
2021/12/22 10:38:23;;;;;;;0.80;0.80;;;2.10;99.90;;;;;;4423919;32;20076;-67
2021/12/22 10:40:51;;;;;;;0.80;0.80;;;2.00;99.90;;;;;;4428466;32;20297;-67
2021/12/22 10:43:21;;;;;;;1.15;0.82;;;2.00;99.90;;;;;;4428178;32;20096;-66
2021/12/22 10:45:51;;;;;;;2.78;1.73;;;2.10;99.90;;;;;;4430126;32;20482;-66
2021/12/22 10:49:21;;;;;;;0.90;0.88;;;2.20;99.90;;;;;;4426466;32;20088;-66
2021/12/22 10:51:08;;;;;;;1.15;1.15;;;2.30;99.90;;;;;;4425014;32;20145;-65
2021/12/22 10:53:44;;;;;;;0.77;0.73;;;2.20;99.90;;;;;;4421739;32;20771;-66
2021/12/22 10:56:21;;;;;;;1.55;1.35;;;2.30;99.90;;;;;;4419644;32;20404;-68
2021/12/22 10:58:57;;;;;;;0.62;0.62;;;2.30;99.90;;;;;;4420973;32;20069;-66
2021/12/22 11:01:23;;;;;;;0.50;0.50;;;2.20;99.90;;;;;;4431785;32;20080;-67
2021/12/22 11:03:53;;;;;;;3.75;1.45;;;2.30;99.90;;;;;;4433498;32;20062;-67
2021/12/22 11:06:24;;;;;;;1.15;0.90;;;2.60;99.90;;;;;;4430153;32;20120;-68
2021/12/22 11:08:53;;;;;;;1.65;1.25;;;2.70;99.90;;;;;;4432167;32;20073;-68
2021/12/22 11:11:19;;;;;;;1.17;1.08;;;2.80;99.90;;;;;;4411456;32;20090;-68
2021/12/22 11:13:44;;;;;;;1.02;0.95;;;2.90;99.90;;;;;;4419881;32;20077;-68
2021/12/22 11:16:11;;;;;;;0.60;0.60;;;2.90;99.90;;;;;;4426887;32;20164;-68
2021/12/22 11:18:37;;;;;;;0.50;0.50;;;2.90;99.90;;;;;;4421095;32;20076;-68
2021/12/22 11:21:29;;;;;;;0.43;0.43;;;2.70;99.90;;;;;;4418553;32;21323;-66
2021/12/22 11:23:55;;;;;;;0.93;0.93;;;2.90;99.90;;;;;;4431459;32;20085;-65
2021/12/22 11:26:21;;;;;;;0.60;0.60;;;3.20;99.90;;;;;;4420038;32;20093;-65
2021/12/22 11:28:47;;;;;;;2.78;1.37;;;3.20;99.90;;;;;;4411527;32;20105;-65
2021/12/22 11:31:13;;;;;;;8.10;2.80;;;3.20;99.90;;;;;;4408764;32;20185;-65
2021/12/22 11:33:40;;;;;;;0.43;0.43;;;3.20;99.90;;;;;;4427782;32;20101;-65
2021/12/22 11:36:07;;;;;;;0.70;0.70;;;3.20;99.90;;;;;;4427582;32;20801;-65
2021/12/22 11:38:33;;;;;;;0.40;0.40;;;3.20;99.90;;;;;;4430289;32;20072;-65
2021/12/22 11:41:10;;;;;;;0.90;0.90;;;3.30;99.90;;;;;;4420049;32;20542;-67
2021/12/22 11:43:38;;;;;;;0.40;0.40;;;3.30;99.90;;;;;;4431045;32;20895;-68
2021/12/22 11:46:05;;;;;;;0.95;0.88;;;3.40;99.90;;;;;;4417013;32;20081;-67
2021/12/22 11:48:33;;;;;;;0.52;0.52;;;3.20;99.90;;;;;;4409919;32;20080;-66
2021/12/22 11:50:58;;;;;;;0.50;0.50;;;3.30;99.90;;;;;;4422691;32;20080;-68
2021/12/22 11:53:24;;;;;;;2.30;1.48;;;3.20;99.90;;;;;;4431525;32;20161;-66
2021/12/22 11:55:55;;;;;;;0.70;0.70;;;2.90;99.90;;;;;;4430311;32;20092;-68
2021/12/22 11:58:25;;;;;;;3.03;1.50;;;3.10;99.90;;;;;;4412514;32;20132;-67
2021/12/22 12:00:56;;;;;;;0.85;0.85;;;3.30;99.90;;;;;;4411483;32;20630;-68
2021/12/22 12:03:36;;;;;;;1.45;1.12;;;3.30;99.90;;;;;;4412929;32;20287;-68
2021/12/22 12:06:03;;;;;;;;;;;3.60;99.90;;;;;;4412273;32;20102;-67
2021/12/22 12:08:35;;;;;;;0.40;0.40;;;3.60;99.90;;;;;;4413935;32;20026;-67
2021/12/22 12:11:01;;;;;;;1.08;1.02;;;3.70;99.90;;;;;;4395809;32;20085;-67
2021/12/22 12:14:06;;;;;;;0.80;0.80;;;3.80;99.90;;;;;;4414946;32;20124;-67
2021/12/22 12:21:47;;;;;;;0.95;0.88;;;4.10;99.90;;;;;;4387783;32;20073;-68
2021/12/22 12:22:08;;;;;;;0.68;0.68;;;4.00;99.90;;;;;;4404979;32;20104;-67
2021/12/22 12:24:43;;;;;;;2.40;1.83;;;4.20;99.90;;;;;;4416537;32;20073;-67
2021/12/22 12:27:46;;;;;;;0.98;0.98;;;4.30;99.90;;;;;;4432247;32;20133;-69
2021/12/22 12:30:48;;;;;;;8.15;3.42;;;4.40;99.90;;;;;;4430072;32;20082;-67
2021/12/22 12:33:31;;;;;;;2.10;1.27;;;4.50;99.90;;;;;;4416509;32;20590;-67
2021/12/22 12:36:15;;;;;;;1.05;0.95;;;4.50;99.90;;;;;;4430341;32;20113;-66
2021/12/22 12:38:44;;;;;;;0.80;0.80;;;4.60;99.90;;;;;;4428877;32;20700;-65
2021/12/22 12:41:14;;;;;;;2.20;1.30;;;4.60;99.90;;;;;;4432200;32;20121;-66
2021/12/22 12:43:44;;;;;;;3.12;1.48;;;4.30;99.90;;;;;;4424088;32;20089;-67
2021/12/22 12:46:31;;;;;;;1.33;1.23;;;4.40;99.90;;;;;;4429890;32;20065;-66
2021/12/22 12:49:06;;;;;;;8.55;1.15;;;4.10;99.90;;;;;;4424285;32;20077;-66
2021/12/22 12:51:50;;;;;;;0.57;0.57;;;4.10;99.90;;;;;;4413458;32;20109;-67
2021/12/22 12:54:18;;;;;;;1.60;1.33;;;3.80;99.90;;;;;;4430558;32;20357;-65
2021/12/22 12:56:50;;;;;;;4.15;0.80;;;3.70;99.90;;;;;;4428546;32;20081;-66
2021/12/22 12:59:18;;;;;;;3.50;1.65;;;3.70;99.90;;;;;;4429291;32;20072;-65
2021/12/22 13:01:51;;;;;;;0.40;0.40;;;3.50;99.90;;;;;;4413192;32;20545;-67
2021/12/22 13:04:35;;;;;;;2.50;0.98;;;3.60;99.90;;;;;;4436384;32;20052;-69
2021/12/22 13:07:05;;;;;;;3.05;1.48;;;3.60;99.90;;;;;;4428661;32;20591;-66
2021/12/22 13:09:37;;;;;;;0.75;0.75;;;3.60;99.90;;;;;;4428125;32;20083;-66
2021/12/22 13:12:18;;;;;;;0.47;0.47;;;3.80;99.90;;;;;;4430923;32;20171;-67
2021/12/22 13:15:46;;;;;;;;;;;4.10;99.90;;;;;;4427621;32;20073;-66
2021/12/22 13:17:36;;;;;;;1.77;0.80;;;4.10;99.90;;;;;;4426972;32;20049;-66